sensor_id;sensor_type;location;lat;lon;timestamp;P1;durP1;ratioP1;P2;durP2;ratioP2
45784;SDS011;31489;51.404;5.474;2022-12-22T00:01:16;3.95;;;3.58;;
45784;SDS011;31489;51.404;5.474;2022-12-22T00:04:00;16.75;;;8.93;;
45784;SDS011;31489;51.404;5.474;2022-12-22T00:06:44;7.63;;;4.72;;
45784;SDS011;31489;51.404;5.474;2022-12-22T00:09:28;4.68;;;4.28;;
45784;SDS011;31489;51.404;5.474;2022-12-22T00:12:12;29.75;;;12.68;;
45784;SDS011;31489;51.404;5.474;2022-12-22T00:14:59;8.98;;;6.07;;
45784;SDS011;31489;51.404;5.474;2022-12-22T00:17:43;5.05;;;4.20;;
45784;SDS011;31489;51.404;5.474;2022-12-22T00:20:28;4.25;;;3.85;;
45784;SDS011;31489;51.404;5.474;2022-12-22T00:23:12;5.40;;;3.67;;
45784;SDS011;31489;51.404;5.474;2022-12-22T00:25:56;4.18;;;3.78;;
45784;SDS011;31489;51.404;5.474;2022-12-22T00:28:42;4.28;;;3.90;;
45784;SDS011;31489;51.404;5.474;2022-12-22T00:31:26;4.38;;;3.97;;
45784;SDS011;31489;51.404;5.474;2022-12-22T00:34:18;4.85;;;3.67;;
45784;SDS011;31489;51.404;5.474;2022-12-22T00:37:04;10.10;;;5.60;;
45784;SDS011;31489;51.404;5.474;2022-12-22T00:39:48;37.00;;;15.40;;
45784;SDS011;31489;51.404;5.474;2022-12-22T00:42:33;11.18;;;6.65;;
45784;SDS011;31489;51.404;5.474;2022-12-22T00:45:18;7.57;;;4.82;;
45784;SDS011;31489;51.404;5.474;2022-12-22T00:48:02;4.63;;;4.22;;
45784;SDS011;31489;51.404;5.474;2022-12-22T00:50:48;4.57;;;3.67;;
45784;SDS011;31489;51.404;5.474;2022-12-22T00:53:32;4.10;;;3.70;;
45784;SDS011;31489;51.404;5.474;2022-12-22T00:56:17;4.15;;;3.45;;
45784;SDS011;31489;51.404;5.474;2022-12-22T00:59:01;4.05;;;3.65;;
45784;SDS011;31489;51.404;5.474;2022-12-22T01:01:45;4.57;;;4.07;;
45784;SDS011;31489;51.404;5.474;2022-12-22T01:04:29;5.22;;;3.85;;
45784;SDS011;31489;51.404;5.474;2022-12-22T01:07:14;4.82;;;4.38;;
45784;SDS011;31489;51.404;5.474;2022-12-22T01:12:44;3.90;;;3.60;;
45784;SDS011;31489;51.404;5.474;2022-12-22T01:15:29;4.47;;;4.15;;
45784;SDS011;31489;51.404;5.474;2022-12-22T01:18:14;4.55;;;4.10;;
45784;SDS011;31489;51.404;5.474;2022-12-22T01:20:59;4.07;;;3.67;;
45784;SDS011;31489;51.404;5.474;2022-12-22T01:23:44;4.35;;;3.95;;
45784;SDS011;31489;51.404;5.474;2022-12-22T01:26:29;6.90;;;3.97;;
45784;SDS011;31489;51.404;5.474;2022-12-22T01:29:14;4.30;;;3.97;;
45784;SDS011;31489;51.404;5.474;2022-12-22T01:31:58;3.92;;;3.63;;
45784;SDS011;31489;51.404;5.474;2022-12-22T01:34:42;4.30;;;3.90;;
45784;SDS011;31489;51.404;5.474;2022-12-22T01:37:26;4.35;;;3.95;;
45784;SDS011;31489;51.404;5.474;2022-12-22T01:40:20;5.70;;;4.45;;
45784;SDS011;31489;51.404;5.474;2022-12-22T01:43:26;4.43;;;4.03;;
45784;SDS011;31489;51.404;5.474;2022-12-22T01:46:21;5.13;;;4.47;;
45784;SDS011;31489;51.404;5.474;2022-12-22T01:49:20;5.32;;;4.28;;
45784;SDS011;31489;51.404;5.474;2022-12-22T01:52:26;4.43;;;4.03;;
45784;SDS011;31489;51.404;5.474;2022-12-22T01:55:16;4.43;;;4.13;;
45784;SDS011;31489;51.404;5.474;2022-12-22T01:58:04;4.45;;;4.05;;
45784;SDS011;31489;51.404;5.474;2022-12-22T02:00:58;3.97;;;3.58;;
45784;SDS011;31489;51.404;5.474;2022-12-22T02:03:42;3.33;;;3.05;;
45784;SDS011;31489;51.404;5.474;2022-12-22T02:06:28;4.40;;;3.60;;
45784;SDS011;31489;51.404;5.474;2022-12-22T02:12:28;3.78;;;3.47;;
45784;SDS011;31489;51.404;5.474;2022-12-22T02:15:21;3.65;;;3.35;;
45784;SDS011;31489;51.404;5.474;2022-12-22T02:21:13;3.95;;;3.25;;
45784;SDS011;31489;51.404;5.474;2022-12-22T02:26:50;3.63;;;3.28;;
45784;SDS011;31489;51.404;5.474;2022-12-22T02:29:42;3.75;;;3.20;;
45784;SDS011;31489;51.404;5.474;2022-12-22T02:32:34;3.63;;;3.33;;
45784;SDS011;31489;51.404;5.474;2022-12-22T02:35:21;6.05;;;3.47;;
45784;SDS011;31489;51.404;5.474;2022-12-22T02:44:24;4.03;;;3.20;;
45784;SDS011;31489;51.404;5.474;2022-12-22T02:50:41;3.35;;;3.05;;
45784;SDS011;31489;51.404;5.474;2022-12-22T02:53:29;3.17;;;2.88;;
45784;SDS011;31489;51.404;5.474;2022-12-22T02:56:14;2.90;;;2.70;;
45784;SDS011;31489;51.404;5.474;2022-12-22T02:58:58;3.33;;;3.03;;
45784;SDS011;31489;51.404;5.474;2022-12-22T03:01:43;3.70;;;2.90;;
45784;SDS011;31489;51.404;5.474;2022-12-22T03:04:29;4.03;;;2.65;;
45784;SDS011;31489;51.404;5.474;2022-12-22T03:07:13;2.67;;;2.47;;
45784;SDS011;31489;51.404;5.474;2022-12-22T03:09:57;3.03;;;2.78;;
45784;SDS011;31489;51.404;5.474;2022-12-22T03:12:41;2.80;;;2.60;;
45784;SDS011;31489;51.404;5.474;2022-12-22T03:15:25;2.80;;;2.60;;
45784;SDS011;31489;51.404;5.474;2022-12-22T03:18:10;3.00;;;2.70;;
45784;SDS011;31489;51.404;5.474;2022-12-22T03:20:55;2.92;;;2.72;;
45784;SDS011;31489;51.404;5.474;2022-12-22T03:23:40;2.65;;;2.40;;
45784;SDS011;31489;51.404;5.474;2022-12-22T03:26:25;2.97;;;2.78;;
45784;SDS011;31489;51.404;5.474;2022-12-22T03:28:51;3.50;;;3.20;;
45784;SDS011;31489;51.404;5.474;2022-12-22T03:31:16;3.33;;;2.53;;
45784;SDS011;31489;51.404;5.474;2022-12-22T03:33:42;2.97;;;2.78;;
45784;SDS011;31489;51.404;5.474;2022-12-22T03:36:08;2.60;;;2.40;;
45784;SDS011;31489;51.404;5.474;2022-12-22T03:38:34;2.72;;;2.53;;
45784;SDS011;31489;51.404;5.474;2022-12-22T03:41:00;2.63;;;2.42;;
45784;SDS011;31489;51.404;5.474;2022-12-22T03:43:26;2.95;;;2.60;;
45784;SDS011;31489;51.404;5.474;2022-12-22T03:46:11;2.78;;;2.58;;
45784;SDS011;31489;51.404;5.474;2022-12-22T03:48:59;3.08;;;2.85;;
45784;SDS011;31489;51.404;5.474;2022-12-22T03:54:08;2.80;;;2.55;;
45784;SDS011;31489;51.404;5.474;2022-12-22T03:56:34;3.13;;;2.88;;
45784;SDS011;31489;51.404;5.474;2022-12-22T03:59:00;2.90;;;2.70;;
45784;SDS011;31489;51.404;5.474;2022-12-22T04:01:26;3.00;;;2.67;;
45784;SDS011;31489;51.404;5.474;2022-12-22T04:03:52;2.65;;;2.45;;
45784;SDS011;31489;51.404;5.474;2022-12-22T04:06:17;2.67;;;2.47;;
45784;SDS011;31489;51.404;5.474;2022-12-22T04:08:43;2.65;;;2.45;;
45784;SDS011;31489;51.404;5.474;2022-12-22T04:11:11;2.97;;;2.78;;
45784;SDS011;31489;51.404;5.474;2022-12-22T04:13:56;3.08;;;2.88;;
45784;SDS011;31489;51.404;5.474;2022-12-22T04:16:22;3.35;;;3.05;;
45784;SDS011;31489;51.404;5.474;2022-12-22T04:18:47;2.60;;;2.40;;
45784;SDS011;31489;51.404;5.474;2022-12-22T04:21:13;2.75;;;2.55;;
45784;SDS011;31489;51.404;5.474;2022-12-22T04:23:39;2.80;;;2.60;;
45784;SDS011;31489;51.404;5.474;2022-12-22T04:26:04;2.80;;;2.60;;
45784;SDS011;31489;51.404;5.474;2022-12-22T04:28:30;2.90;;;2.70;;
45784;SDS011;31489;51.404;5.474;2022-12-22T04:30:55;3.05;;;2.85;;
45784;SDS011;31489;51.404;5.474;2022-12-22T04:33:21;2.88;;;2.67;;
45784;SDS011;31489;51.404;5.474;2022-12-22T04:35:47;3.30;;;2.67;;
45784;SDS011;31489;51.404;5.474;2022-12-22T04:38:12;4.18;;;2.40;;
45784;SDS011;31489;51.404;5.474;2022-12-22T04:40:38;3.17;;;2.88;;
45784;SDS011;31489;51.404;5.474;2022-12-22T04:43:04;2.70;;;2.50;;
45784;SDS011;31489;51.404;5.474;2022-12-22T04:45:30;2.00;;;1.90;;
45784;SDS011;31489;51.404;5.474;2022-12-22T04:47:55;1.90;;;1.80;;
45784;SDS011;31489;51.404;5.474;2022-12-22T04:50:21;2.53;;;2.20;;
45784;SDS011;31489;51.404;5.474;2022-12-22T04:52:47;2.83;;;2.63;;
45784;SDS011;31489;51.404;5.474;2022-12-22T04:55:12;2.33;;;2.22;;
45784;SDS011;31489;51.404;5.474;2022-12-22T04:57:38;2.22;;;2.03;;
45784;SDS011;31489;51.404;5.474;2022-12-22T05:00:04;1.95;;;1.83;;
45784;SDS011;31489;51.404;5.474;2022-12-22T05:02:30;2.83;;;2.63;;
45784;SDS011;31489;51.404;5.474;2022-12-22T05:04:56;2.40;;;2.08;;
45784;SDS011;31489;51.404;5.474;2022-12-22T05:07:21;2.25;;;2.05;;
45784;SDS011;31489;51.404;5.474;2022-12-22T05:09:47;2.60;;;2.40;;
45784;SDS011;31489;51.404;5.474;2022-12-22T05:12:12;2.40;;;2.20;;
45784;SDS011;31489;51.404;5.474;2022-12-22T05:14:56;2.70;;;2.50;;
45784;SDS011;31489;51.404;5.474;2022-12-22T05:17:22;2.65;;;2.45;;
45784;SDS011;31489;51.404;5.474;2022-12-22T05:19:48;2.63;;;2.42;;
45784;SDS011;31489;51.404;5.474;2022-12-22T05:22:13;3.38;;;2.58;;
45784;SDS011;31489;51.404;5.474;2022-12-22T05:24:39;3.88;;;2.40;;
45784;SDS011;31489;51.404;5.474;2022-12-22T05:27:05;2.90;;;2.70;;
45784;SDS011;31489;51.404;5.474;2022-12-22T05:29:30;2.58;;;2.38;;
45784;SDS011;31489;51.404;5.474;2022-12-22T05:31:56;3.75;;;2.15;;
45784;SDS011;31489;51.404;5.474;2022-12-22T05:34:21;2.83;;;2.63;;
45784;SDS011;31489;51.404;5.474;2022-12-22T05:36:47;3.20;;;3.00;;
45784;SDS011;31489;51.404;5.474;2022-12-22T05:39:13;2.55;;;2.35;;
45784;SDS011;31489;51.404;5.474;2022-12-22T05:41:38;3.28;;;2.97;;
45784;SDS011;31489;51.404;5.474;2022-12-22T05:44:04;3.45;;;3.15;;
45784;SDS011;31489;51.404;5.474;2022-12-22T05:46:29;6.30;;;3.80;;
45784;SDS011;31489;51.404;5.474;2022-12-22T05:48:55;4.07;;;3.75;;
45784;SDS011;31489;51.404;5.474;2022-12-22T05:51:21;5.07;;;4.22;;
45784;SDS011;31489;51.404;5.474;2022-12-22T05:53:46;4.63;;;4.22;;
45784;SDS011;31489;51.404;5.474;2022-12-22T05:56:12;5.03;;;4.63;;
45784;SDS011;31489;51.404;5.474;2022-12-22T05:58:37;5.95;;;5.45;;
45784;SDS011;31489;51.404;5.474;2022-12-22T06:01:03;7.00;;;6.13;;
45784;SDS011;31489;51.404;5.474;2022-12-22T06:03:29;8.35;;;7.55;;
45784;SDS011;31489;51.404;5.474;2022-12-22T06:05:55;8.35;;;7.55;;
45784;SDS011;31489;51.404;5.474;2022-12-22T06:08:21;8.88;;;7.97;;
45784;SDS011;31489;51.404;5.474;2022-12-22T06:10:47;9.88;;;8.88;;
45784;SDS011;31489;51.404;5.474;2022-12-22T06:13:13;10.52;;;9.00;;
45784;SDS011;31489;51.404;5.474;2022-12-22T06:15:39;10.35;;;9.32;;
45784;SDS011;31489;51.404;5.474;2022-12-22T06:18:04;11.15;;;9.80;;
45784;SDS011;31489;51.404;5.474;2022-12-22T06:20:30;12.80;;;10.20;;
45784;SDS011;31489;51.404;5.474;2022-12-22T06:22:56;14.45;;;10.02;;
45784;SDS011;31489;51.404;5.474;2022-12-22T06:25:21;15.90;;;11.25;;
45784;SDS011;31489;51.404;5.474;2022-12-22T06:27:47;14.55;;;12.05;;
45784;SDS011;31489;51.404;5.474;2022-12-22T06:30:13;17.05;;;12.43;;
45784;SDS011;31489;51.404;5.474;2022-12-22T06:32:40;17.30;;;12.95;;
45784;SDS011;31489;51.404;5.474;2022-12-22T06:35:06;17.45;;;13.65;;
45784;SDS011;31489;51.404;5.474;2022-12-22T06:37:32;16.45;;;12.93;;
45784;SDS011;31489;51.404;5.474;2022-12-22T06:39:58;15.85;;;12.43;;
45784;SDS011;31489;51.404;5.474;2022-12-22T06:42:23;15.95;;;12.15;;
45784;SDS011;31489;51.404;5.474;2022-12-22T06:45:07;16.17;;;12.55;;
45784;SDS011;31489;51.404;5.474;2022-12-22T06:47:33;16.63;;;12.65;;
45784;SDS011;31489;51.404;5.474;2022-12-22T06:49:59;16.52;;;13.02;;
45784;SDS011;31489;51.404;5.474;2022-12-22T06:52:24;22.90;;;13.63;;
45784;SDS011;31489;51.404;5.474;2022-12-22T06:54:50;16.50;;;13.93;;
45784;SDS011;31489;51.404;5.474;2022-12-22T06:57:16;17.50;;;13.68;;
45784;SDS011;31489;51.404;5.474;2022-12-22T06:59:41;19.38;;;14.63;;
45784;SDS011;31489;51.404;5.474;2022-12-22T07:02:08;18.00;;;14.43;;
45784;SDS011;31489;51.404;5.474;2022-12-22T07:04:35;20.80;;;15.15;;
45784;SDS011;31489;51.404;5.474;2022-12-22T07:07:01;20.30;;;15.35;;
45784;SDS011;31489;51.404;5.474;2022-12-22T07:09:26;20.48;;;15.02;;
45784;SDS011;31489;51.404;5.474;2022-12-22T07:11:52;21.52;;;15.63;;
45784;SDS011;31489;51.404;5.474;2022-12-22T07:14:18;22.50;;;16.55;;
45784;SDS011;31489;51.404;5.474;2022-12-22T07:16:44;23.30;;;16.92;;
45784;SDS011;31489;51.404;5.474;2022-12-22T07:19:10;23.10;;;16.73;;
45784;SDS011;31489;51.404;5.474;2022-12-22T07:21:36;20.42;;;16.02;;
45784;SDS011;31489;51.404;5.474;2022-12-22T07:24:02;20.33;;;15.82;;
45784;SDS011;31489;51.404;5.474;2022-12-22T07:26:28;19.80;;;15.85;;
45784;SDS011;31489;51.404;5.474;2022-12-22T07:28:53;20.75;;;14.85;;
45784;SDS011;31489;51.404;5.474;2022-12-22T07:31:19;17.83;;;14.98;;
45784;SDS011;31489;51.404;5.474;2022-12-22T07:33:45;19.80;;;14.52;;
45784;SDS011;31489;51.404;5.474;2022-12-22T07:36:11;16.73;;;14.02;;
45784;SDS011;31489;51.404;5.474;2022-12-22T07:38:40;21.10;;;16.33;;
45784;SDS011;31489;51.404;5.474;2022-12-22T07:41:08;20.83;;;15.20;;
45784;SDS011;31489;51.404;5.474;2022-12-22T07:43:53;19.77;;;15.02;;
45784;SDS011;31489;51.404;5.474;2022-12-22T07:46:20;19.02;;;14.90;;
45784;SDS011;31489;51.404;5.474;2022-12-22T07:48:47;21.45;;;15.65;;
45784;SDS011;31489;51.404;5.474;2022-12-22T07:51:33;16.75;;;14.05;;
45784;SDS011;31489;51.404;5.474;2022-12-22T07:53:59;18.45;;;13.98;;
45784;SDS011;31489;51.404;5.474;2022-12-22T07:56:28;19.08;;;15.00;;
45784;SDS011;31489;51.404;5.474;2022-12-22T07:58:54;17.10;;;14.05;;
45784;SDS011;31489;51.404;5.474;2022-12-22T08:01:19;18.98;;;15.55;;
45784;SDS011;31489;51.404;5.474;2022-12-22T08:03:45;19.65;;;15.05;;
45784;SDS011;31489;51.404;5.474;2022-12-22T08:06:11;21.65;;;16.10;;
45784;SDS011;31489;51.404;5.474;2022-12-22T08:08:36;23.40;;;16.00;;
45784;SDS011;31489;51.404;5.474;2022-12-22T08:11:02;20.50;;;16.33;;
45784;SDS011;31489;51.404;5.474;2022-12-22T08:13:29;22.27;;;17.40;;
45784;SDS011;31489;51.404;5.474;2022-12-22T08:15:54;25.80;;;18.38;;
45784;SDS011;31489;51.404;5.474;2022-12-22T08:18:20;25.73;;;19.38;;
45784;SDS011;31489;51.404;5.474;2022-12-22T08:20:49;25.52;;;18.58;;
45784;SDS011;31489;51.404;5.474;2022-12-22T08:23:16;23.75;;;17.83;;
45784;SDS011;31489;51.404;5.474;2022-12-22T08:25:42;26.38;;;18.73;;
45784;SDS011;31489;51.404;5.474;2022-12-22T08:28:09;27.17;;;18.38;;
45784;SDS011;31489;51.404;5.474;2022-12-22T08:30:39;28.63;;;19.67;;
45784;SDS011;31489;51.404;5.474;2022-12-22T08:33:04;28.77;;;18.85;;
45784;SDS011;31489;51.404;5.474;2022-12-22T08:35:30;30.00;;;19.63;;
45784;SDS011;31489;51.404;5.474;2022-12-22T08:37:56;29.52;;;19.73;;
45784;SDS011;31489;51.404;5.474;2022-12-22T08:40:22;28.92;;;20.20;;
45784;SDS011;31489;51.404;5.474;2022-12-22T08:42:51;29.30;;;19.50;;
45784;SDS011;31489;51.404;5.474;2022-12-22T08:45:20;31.13;;;19.77;;
45784;SDS011;31489;51.404;5.474;2022-12-22T08:47:46;30.77;;;19.98;;
45784;SDS011;31489;51.404;5.474;2022-12-22T08:50:12;31.30;;;21.02;;
45784;SDS011;31489;51.404;5.474;2022-12-22T08:52:38;29.02;;;19.15;;
45784;SDS011;31489;51.404;5.474;2022-12-22T08:55:03;30.27;;;19.95;;
45784;SDS011;31489;51.404;5.474;2022-12-22T08:57:30;41.25;;;27.42;;
45784;SDS011;31489;51.404;5.474;2022-12-22T08:59:55;29.17;;;18.92;;
45784;SDS011;31489;51.404;5.474;2022-12-22T09:02:21;28.98;;;18.52;;
45784;SDS011;31489;51.404;5.474;2022-12-22T09:04:47;28.92;;;18.85;;
45784;SDS011;31489;51.404;5.474;2022-12-22T09:07:13;35.65;;;20.40;;
45784;SDS011;31489;51.404;5.474;2022-12-22T09:09:39;30.23;;;18.65;;
45784;SDS011;31489;51.404;5.474;2022-12-22T09:12:05;28.95;;;18.30;;
45784;SDS011;31489;51.404;5.474;2022-12-22T09:14:31;30.05;;;18.33;;
45784;SDS011;31489;51.404;5.474;2022-12-22T09:16:57;30.20;;;18.27;;
45784;SDS011;31489;51.404;5.474;2022-12-22T09:19:23;27.83;;;17.80;;
45784;SDS011;31489;51.404;5.474;2022-12-22T09:21:49;29.45;;;18.30;;
45784;SDS011;31489;51.404;5.474;2022-12-22T09:24:14;26.10;;;17.23;;
45784;SDS011;31489;51.404;5.474;2022-12-22T09:26:40;31.50;;;19.90;;
45784;SDS011;31489;51.404;5.474;2022-12-22T09:29:07;30.10;;;18.70;;
45784;SDS011;31489;51.404;5.474;2022-12-22T09:31:32;29.70;;;19.17;;
45784;SDS011;31489;51.404;5.474;2022-12-22T09:33:58;27.05;;;18.73;;
45784;SDS011;31489;51.404;5.474;2022-12-22T09:36:25;31.35;;;20.23;;
45784;SDS011;31489;51.404;5.474;2022-12-22T09:38:53;31.17;;;20.45;;
45784;SDS011;31489;51.404;5.474;2022-12-22T09:41:24;33.92;;;20.33;;
45784;SDS011;31489;51.404;5.474;2022-12-22T09:44:12;31.88;;;20.40;;
45784;SDS011;31489;51.404;5.474;2022-12-22T09:46:42;34.63;;;21.83;;
45784;SDS011;31489;51.404;5.474;2022-12-22T09:49:09;33.78;;;21.98;;
45784;SDS011;31489;51.404;5.474;2022-12-22T09:51:40;36.83;;;22.20;;
45784;SDS011;31489;51.404;5.474;2022-12-22T09:54:09;32.38;;;21.30;;
45784;SDS011;31489;51.404;5.474;2022-12-22T09:56:36;32.38;;;21.33;;
45784;SDS011;31489;51.404;5.474;2022-12-22T09:59:07;30.73;;;20.65;;
45784;SDS011;31489;51.404;5.474;2022-12-22T10:09:52;31.15;;;18.67;;
45784;SDS011;31489;51.404;5.474;2022-12-22T10:12:22;27.13;;;18.35;;
45784;SDS011;31489;51.404;5.474;2022-12-22T10:14:50;29.27;;;18.50;;
45784;SDS011;31489;51.404;5.474;2022-12-22T10:17:22;27.42;;;17.45;;
45784;SDS011;31489;51.404;5.474;2022-12-22T10:19:53;28.20;;;17.42;;
45784;SDS011;31489;51.404;5.474;2022-12-22T10:22:31;21.27;;;15.15;;
45784;SDS011;31489;51.404;5.474;2022-12-22T10:24:59;22.00;;;15.48;;
45784;SDS011;31489;51.404;5.474;2022-12-22T10:27:28;22.27;;;13.98;;
45784;SDS011;31489;51.404;5.474;2022-12-22T10:32:43;25.73;;;13.52;;
45784;SDS011;31489;51.404;5.474;2022-12-22T10:35:24;22.15;;;13.55;;
45784;SDS011;31489;51.404;5.474;2022-12-22T10:37:50;21.48;;;13.45;;
45784;SDS011;31489;51.404;5.474;2022-12-22T10:42:43;20.05;;;13.43;;
45784;SDS011;31489;51.404;5.474;2022-12-22T10:45:17;22.73;;;14.90;;
45784;SDS011;31489;51.404;5.474;2022-12-22T10:47:46;26.08;;;17.35;;
45784;SDS011;31489;51.404;5.474;2022-12-22T10:50:14;21.95;;;16.13;;
45784;SDS011;31489;51.404;5.474;2022-12-22T10:52:41;24.27;;;16.65;;
45784;SDS011;31489;51.404;5.474;2022-12-22T10:57:49;24.48;;;18.23;;
45784;SDS011;31489;51.404;5.474;2022-12-22T11:00:28;24.42;;;17.88;;
45784;SDS011;31489;51.404;5.474;2022-12-22T11:02:56;23.38;;;17.02;;
45784;SDS011;31489;51.404;5.474;2022-12-22T11:05:23;22.23;;;14.80;;
45784;SDS011;31489;51.404;5.474;2022-12-22T11:07:49;15.50;;;11.43;;
45784;SDS011;31489;51.404;5.474;2022-12-22T11:23:49;18.75;;;12.43;;
45784;SDS011;31489;51.404;5.474;2022-12-22T11:56:40;20.42;;;14.48;;
45784;SDS011;31489;51.404;5.474;2022-12-22T12:07:50;14.77;;;9.73;;
45784;SDS011;31489;51.404;5.474;2022-12-22T12:10:30;11.95;;;8.80;;
45784;SDS011;31489;51.404;5.474;2022-12-22T12:15:55;13.77;;;9.27;;
45784;SDS011;31489;51.404;5.474;2022-12-22T12:21:49;13.18;;;8.82;;
45784;SDS011;31489;51.404;5.474;2022-12-22T12:24:32;11.27;;;7.72;;
45784;SDS011;31489;51.404;5.474;2022-12-22T12:27:24;13.18;;;8.38;;
45784;SDS011;31489;51.404;5.474;2022-12-22T12:32:40;13.60;;;8.52;;
45784;SDS011;31489;51.404;5.474;2022-12-22T12:43:57;14.55;;;9.90;;
45784;SDS011;31489;51.404;5.474;2022-12-22T12:46:43;13.65;;;9.32;;
45784;SDS011;31489;51.404;5.474;2022-12-22T12:52:00;15.23;;;9.75;;
45784;SDS011;31489;51.404;5.474;2022-12-22T12:55:15;13.35;;;9.82;;
45784;SDS011;31489;51.404;5.474;2022-12-22T12:57:45;15.25;;;10.35;;
45784;SDS011;31489;51.404;5.474;2022-12-22T13:21:00;13.82;;;10.23;;
45784;SDS011;31489;51.404;5.474;2022-12-22T13:23:37;15.15;;;10.77;;
45784;SDS011;31489;51.404;5.474;2022-12-22T13:26:06;16.33;;;11.07;;
45784;SDS011;31489;51.404;5.474;2022-12-22T13:28:35;13.75;;;10.40;;
45784;SDS011;31489;51.404;5.474;2022-12-22T13:31:06;13.95;;;10.52;;
45784;SDS011;31489;51.404;5.474;2022-12-22T13:33:40;16.35;;;10.85;;
45784;SDS011;31489;51.404;5.474;2022-12-22T13:36:12;11.38;;;8.98;;
45784;SDS011;31489;51.404;5.474;2022-12-22T13:38:42;12.18;;;7.45;;
45784;SDS011;31489;51.404;5.474;2022-12-22T13:41:15;9.18;;;7.03;;
45784;SDS011;31489;51.404;5.474;2022-12-22T13:43:51;7.47;;;6.22;;
45784;SDS011;31489;51.404;5.474;2022-12-22T13:46:19;10.05;;;6.55;;
45784;SDS011;31489;51.404;5.474;2022-12-22T13:48:49;12.82;;;7.38;;
45784;SDS011;31489;51.404;5.474;2022-12-22T13:51:20;8.45;;;5.93;;
45784;SDS011;31489;51.404;5.474;2022-12-22T13:53:54;8.93;;;5.60;;
45784;SDS011;31489;51.404;5.474;2022-12-22T13:59:16;6.07;;;4.97;;
45784;SDS011;31489;51.404;5.474;2022-12-22T14:01:49;8.23;;;6.55;;
45784;SDS011;31489;51.404;5.474;2022-12-22T14:04:15;8.00;;;4.93;;
45784;SDS011;31489;51.404;5.474;2022-12-22T14:06:41;6.25;;;4.85;;
45784;SDS011;31489;51.404;5.474;2022-12-22T14:11:50;6.30;;;4.90;;
45784;SDS011;31489;51.404;5.474;2022-12-22T14:14:22;5.65;;;4.97;;
45784;SDS011;31489;51.404;5.474;2022-12-22T14:16:51;11.35;;;5.43;;
45784;SDS011;31489;51.404;5.474;2022-12-22T14:19:18;8.23;;;5.40;;
45784;SDS011;31489;51.404;5.474;2022-12-22T14:21:46;8.70;;;5.28;;
45784;SDS011;31489;51.404;5.474;2022-12-22T14:24:34;10.88;;;5.20;;
45784;SDS011;31489;51.404;5.474;2022-12-22T14:30:00;7.85;;;5.45;;
45784;SDS011;31489;51.404;5.474;2022-12-22T14:32:35;8.43;;;5.65;;
45784;SDS011;31489;51.404;5.474;2022-12-22T14:35:02;7.07;;;5.45;;
45784;SDS011;31489;51.404;5.474;2022-12-22T14:37:28;6.88;;;5.50;;
45784;SDS011;31489;51.404;5.474;2022-12-22T14:39:54;8.85;;;6.47;;
45784;SDS011;31489;51.404;5.474;2022-12-22T14:42:20;10.13;;;6.10;;
45784;SDS011;31489;51.404;5.474;2022-12-22T14:44:46;13.50;;;5.88;;
45784;SDS011;31489;51.404;5.474;2022-12-22T14:47:17;8.95;;;6.03;;
45784;SDS011;31489;51.404;5.474;2022-12-22T14:49:54;7.93;;;6.00;;
45784;SDS011;31489;51.404;5.474;2022-12-22T14:52:29;7.07;;;5.22;;
45784;SDS011;31489;51.404;5.474;2022-12-22T14:54:59;8.23;;;4.97;;
45784;SDS011;31489;51.404;5.474;2022-12-22T14:57:35;8.48;;;4.70;;
45784;SDS011;31489;51.404;5.474;2022-12-22T15:00:06;6.53;;;4.55;;
45784;SDS011;31489;51.404;5.474;2022-12-22T15:02:48;7.32;;;4.68;;
45784;SDS011;31489;51.404;5.474;2022-12-22T15:05:26;6.63;;;4.55;;
45784;SDS011;31489;51.404;5.474;2022-12-22T15:08:01;7.00;;;4.32;;
45784;SDS011;31489;51.404;5.474;2022-12-22T15:10:28;6.70;;;5.30;;
45784;SDS011;31489;51.404;5.474;2022-12-22T15:13:02;9.88;;;5.65;;
45784;SDS011;31489;51.404;5.474;2022-12-22T15:15:30;6.78;;;5.10;;
45784;SDS011;31489;51.404;5.474;2022-12-22T15:17:57;7.15;;;4.65;;
45784;SDS011;31489;51.404;5.474;2022-12-22T15:20:24;4.97;;;4.20;;
45784;SDS011;31489;51.404;5.474;2022-12-22T15:22:52;5.40;;;4.40;;
45784;SDS011;31489;51.404;5.474;2022-12-22T15:25:18;10.82;;;5.90;;
45784;SDS011;31489;51.404;5.474;2022-12-22T15:27:48;6.63;;;4.80;;
45784;SDS011;31489;51.404;5.474;2022-12-22T15:30:17;6.40;;;4.50;;
45784;SDS011;31489;51.404;5.474;2022-12-22T15:32:44;8.32;;;4.70;;
45784;SDS011;31489;51.404;5.474;2022-12-22T15:35:14;6.78;;;4.55;;
45784;SDS011;31489;51.404;5.474;2022-12-22T15:37:46;6.65;;;4.85;;
45784;SDS011;31489;51.404;5.474;2022-12-22T15:40:15;4.53;;;4.07;;
45784;SDS011;31489;51.404;5.474;2022-12-22T15:42:43;5.50;;;4.22;;
45784;SDS011;31489;51.404;5.474;2022-12-22T15:45:09;5.35;;;4.28;;
45784;SDS011;31489;51.404;5.474;2022-12-22T15:47:35;6.00;;;4.80;;
45784;SDS011;31489;51.404;5.474;2022-12-22T15:50:01;5.22;;;4.00;;
45784;SDS011;31489;51.404;5.474;2022-12-22T15:52:27;4.28;;;3.72;;
45784;SDS011;31489;51.404;5.474;2022-12-22T15:54:55;6.03;;;4.00;;
45784;SDS011;31489;51.404;5.474;2022-12-22T15:57:21;5.63;;;4.80;;
45784;SDS011;31489;51.404;5.474;2022-12-22T15:59:46;6.75;;;4.30;;
45784;SDS011;31489;51.404;5.474;2022-12-22T16:02:12;4.38;;;3.58;;
45784;SDS011;31489;51.404;5.474;2022-12-22T16:04:38;4.10;;;3.70;;
45784;SDS011;31489;51.404;5.474;2022-12-22T16:07:03;3.92;;;3.50;;
45784;SDS011;31489;51.404;5.474;2022-12-22T16:09:31;4.43;;;4.03;;
45784;SDS011;31489;51.404;5.474;2022-12-22T16:12:21;4.43;;;3.95;;
45784;SDS011;31489;51.404;5.474;2022-12-22T16:14:48;5.32;;;4.13;;
45784;SDS011;31489;51.404;5.474;2022-12-22T16:17:18;3.70;;;3.28;;
45784;SDS011;31489;51.404;5.474;2022-12-22T16:19:47;4.75;;;4.20;;
45784;SDS011;31489;51.404;5.474;2022-12-22T16:22:13;6.55;;;3.65;;
45784;SDS011;31489;51.404;5.474;2022-12-22T16:24:41;4.45;;;3.90;;
45784;SDS011;31489;51.404;5.474;2022-12-22T16:27:12;5.07;;;4.50;;
45784;SDS011;31489;51.404;5.474;2022-12-22T16:29:41;4.38;;;3.97;;
45784;SDS011;31489;51.404;5.474;2022-12-22T16:37:34;8.23;;;4.75;;
45784;SDS011;31489;51.404;5.474;2022-12-22T16:39:59;5.63;;;4.85;;
45784;SDS011;31489;51.404;5.474;2022-12-22T16:42:25;8.57;;;5.28;;
45784;SDS011;31489;51.404;5.474;2022-12-22T16:44:51;7.28;;;5.18;;
45784;SDS011;31489;51.404;5.474;2022-12-22T16:47:17;7.28;;;5.65;;
45784;SDS011;31489;51.404;5.474;2022-12-22T16:49:47;6.47;;;4.88;;
45784;SDS011;31489;51.404;5.474;2022-12-22T16:52:16;7.78;;;5.53;;
45784;SDS011;31489;51.404;5.474;2022-12-22T16:54:44;9.15;;;4.85;;
45784;SDS011;31489;51.404;5.474;2022-12-22T16:57:10;8.93;;;5.57;;
45784;SDS011;31489;51.404;5.474;2022-12-22T16:59:36;10.85;;;4.30;;
45784;SDS011;31489;51.404;5.474;2022-12-22T17:02:01;8.02;;;4.70;;
45784;SDS011;31489;51.404;5.474;2022-12-22T17:04:28;8.52;;;4.95;;
45784;SDS011;31489;51.404;5.474;2022-12-22T17:06:56;8.00;;;4.10;;
45784;SDS011;31489;51.404;5.474;2022-12-22T17:09:24;11.55;;;4.40;;
45784;SDS011;31489;51.404;5.474;2022-12-22T17:11:55;11.77;;;4.05;;
45784;SDS011;31489;51.404;5.474;2022-12-22T17:14:27;11.30;;;3.80;;
45784;SDS011;31489;51.404;5.474;2022-12-22T17:16:57;16.50;;;5.55;;
45784;SDS011;31489;51.404;5.474;2022-12-22T17:19:22;14.38;;;4.80;;
45784;SDS011;31489;51.404;5.474;2022-12-22T17:21:48;10.55;;;4.85;;
45784;SDS011;31489;51.404;5.474;2022-12-22T17:24:16;13.10;;;5.38;;
45784;SDS011;31489;51.404;5.474;2022-12-22T17:26:43;14.70;;;4.82;;
45784;SDS011;31489;51.404;5.474;2022-12-22T17:29:17;17.52;;;5.60;;
45784;SDS011;31489;51.404;5.474;2022-12-22T17:31:45;15.88;;;5.18;;
45784;SDS011;31489;51.404;5.474;2022-12-22T17:34:14;19.27;;;4.80;;